sensor_id;sensor_type;location;lat;lon;timestamp;P1;durP1;ratioP1;P2;durP2;ratioP2
76284;SDS011;71676;50.998;7.098;2023-12-20T00:01:44;14.23;;;7.60;;
76284;SDS011;71676;50.998;7.098;2023-12-20T00:04:11;12.95;;;7.15;;
76284;SDS011;71676;50.998;7.098;2023-12-20T00:06:37;12.40;;;6.47;;
76284;SDS011;71676;50.998;7.098;2023-12-20T00:09:04;13.70;;;6.63;;
76284;SDS011;71676;50.998;7.098;2023-12-20T00:11:31;12.80;;;7.00;;
76284;SDS011;71676;50.998;7.098;2023-12-20T00:13:59;13.43;;;6.75;;
76284;SDS011;71676;50.998;7.098;2023-12-20T00:16:24;13.63;;;6.90;;
76284;SDS011;71676;50.998;7.098;2023-12-20T00:18:51;13.63;;;6.63;;
76284;SDS011;71676;50.998;7.098;2023-12-20T00:21:18;15.27;;;7.25;;
76284;SDS011;71676;50.998;7.098;2023-12-20T00:23:45;13.30;;;7.00;;
76284;SDS011;71676;50.998;7.098;2023-12-20T00:26:11;12.52;;;7.00;;
76284;SDS011;71676;50.998;7.098;2023-12-20T00:28:38;13.57;;;6.88;;
76284;SDS011;71676;50.998;7.098;2023-12-20T00:31:06;14.98;;;6.75;;
76284;SDS011;71676;50.998;7.098;2023-12-20T00:33:32;13.30;;;6.35;;
76284;SDS011;71676;50.998;7.098;2023-12-20T00:35:59;12.27;;;6.07;;
76284;SDS011;71676;50.998;7.098;2023-12-20T00:38:25;13.88;;;7.03;;
76284;SDS011;71676;50.998;7.098;2023-12-20T00:40:52;9.35;;;4.18;;
76284;SDS011;71676;50.998;7.098;2023-12-20T00:43:19;13.27;;;5.47;;
76284;SDS011;71676;50.998;7.098;2023-12-20T00:45:45;9.98;;;4.22;;
76284;SDS011;71676;50.998;7.098;2023-12-20T00:48:13;7.43;;;3.30;;
76284;SDS011;71676;50.998;7.098;2023-12-20T00:50:40;7.20;;;3.05;;
76284;SDS011;71676;50.998;7.098;2023-12-20T00:53:06;9.50;;;4.00;;
76284;SDS011;71676;50.998;7.098;2023-12-20T00:55:33;10.70;;;3.80;;
76284;SDS011;71676;50.998;7.098;2023-12-20T00:58:00;8.65;;;3.55;;
76284;SDS011;71676;50.998;7.098;2023-12-20T01:00:26;8.52;;;3.47;;
76284;SDS011;71676;50.998;7.098;2023-12-20T01:02:53;8.32;;;3.33;;
76284;SDS011;71676;50.998;7.098;2023-12-20T01:05:21;8.95;;;3.50;;
76284;SDS011;71676;50.998;7.098;2023-12-20T01:07:48;8.30;;;3.33;;
76284;SDS011;71676;50.998;7.098;2023-12-20T01:10:15;11.35;;;3.60;;
76284;SDS011;71676;50.998;7.098;2023-12-20T01:12:42;8.77;;;3.60;;
76284;SDS011;71676;50.998;7.098;2023-12-20T01:15:09;8.15;;;2.95;;
76284;SDS011;71676;50.998;7.098;2023-12-20T01:17:36;8.32;;;2.97;;
76284;SDS011;71676;50.998;7.098;2023-12-20T01:20:03;8.15;;;3.03;;
76284;SDS011;71676;50.998;7.098;2023-12-20T01:22:32;7.00;;;3.00;;
76284;SDS011;71676;50.998;7.098;2023-12-20T01:25:00;8.65;;;2.80;;
76284;SDS011;71676;50.998;7.098;2023-12-20T01:27:27;8.02;;;2.78;;
76284;SDS011;71676;50.998;7.098;2023-12-20T01:29:54;8.45;;;3.03;;
76284;SDS011;71676;50.998;7.098;2023-12-20T01:32:20;8.88;;;3.33;;
76284;SDS011;71676;50.998;7.098;2023-12-20T01:34:47;9.52;;;3.05;;
76284;SDS011;71676;50.998;7.098;2023-12-20T01:37:14;9.10;;;3.30;;
76284;SDS011;71676;50.998;7.098;2023-12-20T01:39:42;7.90;;;3.30;;
76284;SDS011;71676;50.998;7.098;2023-12-20T01:42:08;8.38;;;3.60;;
76284;SDS011;71676;50.998;7.098;2023-12-20T01:44:35;10.40;;;4.00;;
76284;SDS011;71676;50.998;7.098;2023-12-20T01:47:02;11.15;;;4.53;;
76284;SDS011;71676;50.998;7.098;2023-12-20T01:49:28;10.85;;;3.97;;
76284;SDS011;71676;50.998;7.098;2023-12-20T01:51:55;12.75;;;4.50;;
76284;SDS011;71676;50.998;7.098;2023-12-20T01:54:22;11.10;;;4.80;;
76284;SDS011;71676;50.998;7.098;2023-12-20T01:56:50;12.55;;;4.78;;
76284;SDS011;71676;50.998;7.098;2023-12-20T01:59:17;14.60;;;5.78;;
76284;SDS011;71676;50.998;7.098;2023-12-20T02:01:46;12.80;;;5.45;;
76284;SDS011;71676;50.998;7.098;2023-12-20T02:04:13;12.65;;;5.55;;
76284;SDS011;71676;50.998;7.098;2023-12-20T02:06:40;13.35;;;5.90;;
76284;SDS011;71676;50.998;7.098;2023-12-20T02:09:06;14.65;;;6.25;;
76284;SDS011;71676;50.998;7.098;2023-12-20T02:11:33;16.52;;;7.30;;
76284;SDS011;71676;50.998;7.098;2023-12-20T02:14:03;16.23;;;6.65;;
76284;SDS011;71676;50.998;7.098;2023-12-20T02:16:30;17.40;;;7.13;;
76284;SDS011;71676;50.998;7.098;2023-12-20T02:18:56;15.95;;;7.05;;
76284;SDS011;71676;50.998;7.098;2023-12-20T02:21:25;19.08;;;7.45;;
76284;SDS011;71676;50.998;7.098;2023-12-20T02:23:58;15.73;;;7.57;;
76284;SDS011;71676;50.998;7.098;2023-12-20T02:26:25;17.80;;;6.97;;
76284;SDS011;71676;50.998;7.098;2023-12-20T02:28:52;14.48;;;6.90;;
76284;SDS011;71676;50.998;7.098;2023-12-20T02:31:20;13.73;;;6.32;;
76284;SDS011;71676;50.998;7.098;2023-12-20T02:33:47;13.65;;;5.60;;
76284;SDS011;71676;50.998;7.098;2023-12-20T02:36:13;11.93;;;4.95;;
76284;SDS011;71676;50.998;7.098;2023-12-20T02:38:42;11.05;;;5.07;;
76284;SDS011;71676;50.998;7.098;2023-12-20T02:41:08;12.93;;;5.10;;
76284;SDS011;71676;50.998;7.098;2023-12-20T02:43:35;11.77;;;4.50;;
76284;SDS011;71676;50.998;7.098;2023-12-20T02:46:01;11.32;;;4.60;;
76284;SDS011;71676;50.998;7.098;2023-12-20T02:48:28;14.80;;;4.53;;
76284;SDS011;71676;50.998;7.098;2023-12-20T02:50:55;13.13;;;4.53;;
76284;SDS011;71676;50.998;7.098;2023-12-20T02:53:21;12.90;;;4.10;;
76284;SDS011;71676;50.998;7.098;2023-12-20T02:55:49;12.85;;;4.75;;
76284;SDS011;71676;50.998;7.098;2023-12-20T02:58:16;14.48;;;4.18;;
76284;SDS011;71676;50.998;7.098;2023-12-20T03:00:43;11.05;;;4.30;;
76284;SDS011;71676;50.998;7.098;2023-12-20T03:03:10;13.23;;;4.72;;
76284;SDS011;71676;50.998;7.098;2023-12-20T03:05:36;16.23;;;4.43;;
76284;SDS011;71676;50.998;7.098;2023-12-20T03:08:03;12.23;;;3.90;;
76284;SDS011;71676;50.998;7.098;2023-12-20T03:10:30;12.15;;;4.05;;
76284;SDS011;71676;50.998;7.098;2023-12-20T03:12:58;10.75;;;3.28;;
76284;SDS011;71676;50.998;7.098;2023-12-20T03:15:25;11.90;;;3.97;;
76284;SDS011;71676;50.998;7.098;2023-12-20T03:17:51;12.75;;;3.25;;
76284;SDS011;71676;50.998;7.098;2023-12-20T03:20:18;11.05;;;3.35;;
76284;SDS011;71676;50.998;7.098;2023-12-20T03:22:44;15.05;;;3.85;;
76284;SDS011;71676;50.998;7.098;2023-12-20T03:25:11;10.27;;;2.70;;
76284;SDS011;71676;50.998;7.098;2023-12-20T03:27:37;12.05;;;3.15;;
76284;SDS011;71676;50.998;7.098;2023-12-20T03:30:06;15.90;;;2.90;;
76284;SDS011;71676;50.998;7.098;2023-12-20T03:32:34;9.80;;;2.33;;
76284;SDS011;71676;50.998;7.098;2023-12-20T03:35:00;5.90;;;1.75;;
76284;SDS011;71676;50.998;7.098;2023-12-20T03:37:27;9.95;;;2.13;;
76284;SDS011;71676;50.998;7.098;2023-12-20T03:39:54;10.93;;;1.88;;
76284;SDS011;71676;50.998;7.098;2023-12-20T03:42:21;9.63;;;2.45;;
76284;SDS011;71676;50.998;7.098;2023-12-20T03:44:47;15.90;;;2.30;;
76284;SDS011;71676;50.998;7.098;2023-12-20T03:47:15;14.75;;;2.60;;
76284;SDS011;71676;50.998;7.098;2023-12-20T03:49:42;8.18;;;1.77;;
76284;SDS011;71676;50.998;7.098;2023-12-20T03:52:08;10.40;;;2.15;;
76284;SDS011;71676;50.998;7.098;2023-12-20T03:54:35;6.88;;;2.00;;
76284;SDS011;71676;50.998;7.098;2023-12-20T03:57:02;7.75;;;1.90;;
76284;SDS011;71676;50.998;7.098;2023-12-20T03:59:29;9.93;;;2.25;;
76284;SDS011;71676;50.998;7.098;2023-12-20T04:01:56;9.95;;;2.45;;
76284;SDS011;71676;50.998;7.098;2023-12-20T04:04:24;9.52;;;2.70;;
76284;SDS011;71676;50.998;7.098;2023-12-20T04:06:50;13.07;;;2.53;;
76284;SDS011;71676;50.998;7.098;2023-12-20T04:09:17;12.45;;;2.10;;
76284;SDS011;71676;50.998;7.098;2023-12-20T04:11:44;11.13;;;2.60;;
76284;SDS011;71676;50.998;7.098;2023-12-20T04:14:10;9.52;;;2.45;;
76284;SDS011;71676;50.998;7.098;2023-12-20T04:16:37;16.25;;;2.60;;
76284;SDS011;71676;50.998;7.098;2023-12-20T04:19:04;8.45;;;2.25;;
76284;SDS011;71676;50.998;7.098;2023-12-20T04:21:32;9.13;;;2.25;;
76284;SDS011;71676;50.998;7.098;2023-12-20T04:23:58;10.30;;;2.35;;
76284;SDS011;71676;50.998;7.098;2023-12-20T04:26:25;12.60;;;2.60;;
76284;SDS011;71676;50.998;7.098;2023-12-20T04:28:52;13.80;;;2.53;;
76284;SDS011;71676;50.998;7.098;2023-12-20T04:31:18;9.90;;;2.40;;
76284;SDS011;71676;50.998;7.098;2023-12-20T04:33:45;13.85;;;2.78;;
76284;SDS011;71676;50.998;7.098;2023-12-20T04:36:11;12.88;;;2.70;;
76284;SDS011;71676;50.998;7.098;2023-12-20T04:38:40;10.48;;;2.45;;
76284;SDS011;71676;50.998;7.098;2023-12-20T04:41:06;12.93;;;3.92;;
76284;SDS011;71676;50.998;7.098;2023-12-20T04:43:33;10.38;;;2.65;;
76284;SDS011;71676;50.998;7.098;2023-12-20T04:46:00;10.13;;;2.67;;
76284;SDS011;71676;50.998;7.098;2023-12-20T04:48:27;10.35;;;2.97;;
76284;SDS011;71676;50.998;7.098;2023-12-20T04:50:54;10.48;;;2.45;;
76284;SDS011;71676;50.998;7.098;2023-12-20T04:53:20;12.90;;;3.17;;
76284;SDS011;71676;50.998;7.098;2023-12-20T04:55:49;9.50;;;2.72;;
76284;SDS011;71676;50.998;7.098;2023-12-20T04:58:16;8.95;;;2.67;;
76284;SDS011;71676;50.998;7.098;2023-12-20T05:00:42;12.52;;;2.45;;
76284;SDS011;71676;50.998;7.098;2023-12-20T05:03:09;7.70;;;1.90;;
76284;SDS011;71676;50.998;7.098;2023-12-20T05:05:36;2.58;;;1.27;;
76284;SDS011;71676;50.998;7.098;2023-12-20T05:08:02;11.18;;;2.63;;
76284;SDS011;71676;50.998;7.098;2023-12-20T05:10:30;15.48;;;3.88;;
76284;SDS011;71676;50.998;7.098;2023-12-20T05:12:58;11.25;;;2.75;;
76284;SDS011;71676;50.998;7.098;2023-12-20T05:15:24;12.65;;;2.67;;
76284;SDS011;71676;50.998;7.098;2023-12-20T05:17:51;12.52;;;3.33;;
76284;SDS011;71676;50.998;7.098;2023-12-20T05:20:17;12.80;;;3.38;;
76284;SDS011;71676;50.998;7.098;2023-12-20T05:22:44;11.60;;;3.00;;
76284;SDS011;71676;50.998;7.098;2023-12-20T05:25:11;9.88;;;2.67;;
76284;SDS011;71676;50.998;7.098;2023-12-20T05:27:37;13.70;;;2.92;;
76284;SDS011;71676;50.998;7.098;2023-12-20T05:30:06;10.85;;;2.65;;
76284;SDS011;71676;50.998;7.098;2023-12-20T05:32:33;12.70;;;3.17;;
76284;SDS011;71676;50.998;7.098;2023-12-20T05:35:00;10.40;;;3.05;;
76284;SDS011;71676;50.998;7.098;2023-12-20T05:37:27;11.77;;;2.53;;
76284;SDS011;71676;50.998;7.098;2023-12-20T05:39:53;10.45;;;2.85;;
76284;SDS011;71676;50.998;7.098;2023-12-20T05:42:20;13.77;;;3.28;;
76284;SDS011;71676;50.998;7.098;2023-12-20T05:44:47;8.85;;;2.97;;
76284;SDS011;71676;50.998;7.098;2023-12-20T05:47:15;11.98;;;2.70;;
76284;SDS011;71676;50.998;7.098;2023-12-20T05:49:41;11.75;;;2.80;;
76284;SDS011;71676;50.998;7.098;2023-12-20T05:52:08;10.63;;;3.15;;
76284;SDS011;71676;50.998;7.098;2023-12-20T05:54:35;10.77;;;2.67;;
76284;SDS011;71676;50.998;7.098;2023-12-20T05:57:02;13.30;;;3.00;;
76284;SDS011;71676;50.998;7.098;2023-12-20T05:59:29;8.50;;;2.50;;
76284;SDS011;71676;50.998;7.098;2023-12-20T06:01:55;10.02;;;3.05;;
76284;SDS011;71676;50.998;7.098;2023-12-20T06:04:23;12.18;;;2.80;;
76284;SDS011;71676;50.998;7.098;2023-12-20T06:06:50;15.77;;;3.38;;
76284;SDS011;71676;50.998;7.098;2023-12-20T06:09:16;14.27;;;3.38;;
76284;SDS011;71676;50.998;7.098;2023-12-20T06:11:43;8.35;;;2.30;;
76284;SDS011;71676;50.998;7.098;2023-12-20T06:14:10;11.13;;;2.85;;
76284;SDS011;71676;50.998;7.098;2023-12-20T06:16:36;15.68;;;2.72;;
76284;SDS011;71676;50.998;7.098;2023-12-20T06:19:03;11.13;;;4.03;;
76284;SDS011;71676;50.998;7.098;2023-12-20T06:21:31;13.30;;;2.67;;
76284;SDS011;71676;50.998;7.098;2023-12-20T06:23:58;12.25;;;2.55;;
76284;SDS011;71676;50.998;7.098;2023-12-20T06:26:25;8.50;;;2.60;;
76284;SDS011;71676;50.998;7.098;2023-12-20T06:28:52;10.25;;;2.65;;
76284;SDS011;71676;50.998;7.098;2023-12-20T06:31:18;10.48;;;2.90;;
76284;SDS011;71676;50.998;7.098;2023-12-20T06:33:45;9.57;;;2.85;;
76284;SDS011;71676;50.998;7.098;2023-12-20T06:36:12;14.50;;;3.25;;
76284;SDS011;71676;50.998;7.098;2023-12-20T06:38:40;13.95;;;3.10;;
76284;SDS011;71676;50.998;7.098;2023-12-20T06:41:08;11.40;;;2.60;;
76284;SDS011;71676;50.998;7.098;2023-12-20T06:43:34;8.13;;;2.53;;
76284;SDS011;71676;50.998;7.098;2023-12-20T06:46:01;11.50;;;2.38;;
76284;SDS011;71676;50.998;7.098;2023-12-20T06:48:28;9.05;;;2.40;;
76284;SDS011;71676;50.998;7.098;2023-12-20T06:50:54;5.05;;;1.73;;
76284;SDS011;71676;50.998;7.098;2023-12-20T06:53:21;11.18;;;2.40;;
76284;SDS011;71676;50.998;7.098;2023-12-20T06:55:49;9.90;;;2.03;;
76284;SDS011;71676;50.998;7.098;2023-12-20T06:58:16;12.57;;;3.05;;
76284;SDS011;71676;50.998;7.098;2023-12-20T07:00:42;12.50;;;2.67;;
76284;SDS011;71676;50.998;7.098;2023-12-20T07:03:09;13.88;;;2.55;;
76284;SDS011;71676;50.998;7.098;2023-12-20T07:05:36;11.38;;;2.55;;
76284;SDS011;71676;50.998;7.098;2023-12-20T07:08:03;6.38;;;1.83;;
76284;SDS011;71676;50.998;7.098;2023-12-20T07:10:30;11.27;;;2.40;;
76284;SDS011;71676;50.998;7.098;2023-12-20T07:12:58;15.00;;;3.10;;
76284;SDS011;71676;50.998;7.098;2023-12-20T07:15:24;11.93;;;2.97;;
76284;SDS011;71676;50.998;7.098;2023-12-20T07:17:51;9.30;;;2.30;;
76284;SDS011;71676;50.998;7.098;2023-12-20T07:20:18;16.15;;;3.58;;
76284;SDS011;71676;50.998;7.098;2023-12-20T07:22:45;12.38;;;2.70;;
76284;SDS011;71676;50.998;7.098;2023-12-20T07:25:12;9.70;;;2.60;;
76284;SDS011;71676;50.998;7.098;2023-12-20T07:27:39;10.45;;;2.88;;
76284;SDS011;71676;50.998;7.098;2023-12-20T07:30:08;11.80;;;2.42;;
76284;SDS011;71676;50.998;7.098;2023-12-20T07:32:35;5.68;;;1.65;;
76284;SDS011;71676;50.998;7.098;2023-12-20T07:35:02;15.07;;;3.17;;
76284;SDS011;71676;50.998;7.098;2023-12-20T07:37:30;12.48;;;2.70;;
76284;SDS011;71676;50.998;7.098;2023-12-20T07:39:57;12.38;;;2.80;;
76284;SDS011;71676;50.998;7.098;2023-12-20T07:42:23;11.85;;;2.78;;
76284;SDS011;71676;50.998;7.098;2023-12-20T07:44:50;14.32;;;2.47;;
76284;SDS011;71676;50.998;7.098;2023-12-20T07:47:18;7.22;;;1.98;;
76284;SDS011;71676;50.998;7.098;2023-12-20T07:49:46;12.50;;;2.10;;
76284;SDS011;71676;50.998;7.098;2023-12-20T07:52:13;7.90;;;2.33;;
76284;SDS011;71676;50.998;7.098;2023-12-20T07:54:40;9.65;;;2.30;;
76284;SDS011;71676;50.998;7.098;2023-12-20T07:57:07;10.90;;;2.97;;
76284;SDS011;71676;50.998;7.098;2023-12-20T07:59:34;12.88;;;3.28;;
76284;SDS011;71676;50.998;7.098;2023-12-20T08:02:00;11.65;;;3.20;;
76284;SDS011;71676;50.998;7.098;2023-12-20T08:04:28;12.15;;;2.90;;
76284;SDS011;71676;50.998;7.098;2023-12-20T08:06:55;9.30;;;2.78;;
76284;SDS011;71676;50.998;7.098;2023-12-20T08:09:22;11.30;;;2.80;;
76284;SDS011;71676;50.998;7.098;2023-12-20T08:11:49;16.45;;;3.50;;
76284;SDS011;71676;50.998;7.098;2023-12-20T08:14:16;13.18;;;3.30;;
76284;SDS011;71676;50.998;7.098;2023-12-20T08:16:42;11.68;;;3.38;;
76284;SDS011;71676;50.998;7.098;2023-12-20T08:19:09;8.68;;;2.80;;
76284;SDS011;71676;50.998;7.098;2023-12-20T08:21:37;12.20;;;2.70;;
76284;SDS011;71676;50.998;7.098;2023-12-20T08:24:07;8.73;;;2.42;;
76284;SDS011;71676;50.998;7.098;2023-12-20T08:26:34;11.80;;;3.40;;
76284;SDS011;71676;50.998;7.098;2023-12-20T08:29:00;12.25;;;2.97;;
76284;SDS011;71676;50.998;7.098;2023-12-20T08:31:26;13.75;;;2.88;;
76284;SDS011;71676;50.998;7.098;2023-12-20T08:33:53;10.82;;;3.05;;
76284;SDS011;71676;50.998;7.098;2023-12-20T08:36:19;5.93;;;2.05;;
76284;SDS011;71676;50.998;7.098;2023-12-20T08:38:49;12.18;;;3.15;;
76284;SDS011;71676;50.998;7.098;2023-12-20T08:41:16;13.48;;;3.22;;
76284;SDS011;71676;50.998;7.098;2023-12-20T08:43:43;10.88;;;3.28;;
76284;SDS011;71676;50.998;7.098;2023-12-20T08:46:10;6.65;;;2.08;;
76284;SDS011;71676;50.998;7.098;2023-12-20T08:48:36;11.05;;;3.05;;
76284;SDS011;71676;50.998;7.098;2023-12-20T08:51:02;7.05;;;2.42;;
76284;SDS011;71676;50.998;7.098;2023-12-20T08:53:32;9.18;;;2.88;;
76284;SDS011;71676;50.998;7.098;2023-12-20T08:56:00;13.23;;;3.15;;
76284;SDS011;71676;50.998;7.098;2023-12-20T08:58:27;9.48;;;2.47;;
76284;SDS011;71676;50.998;7.098;2023-12-20T09:00:54;12.02;;;2.35;;
76284;SDS011;71676;50.998;7.098;2023-12-20T09:03:20;7.97;;;2.33;;
76284;SDS011;71676;50.998;7.098;2023-12-20T09:05:47;11.27;;;2.63;;
76284;SDS011;71676;50.998;7.098;2023-12-20T09:08:13;9.50;;;3.03;;
76284;SDS011;71676;50.998;7.098;2023-12-20T09:10:40;10.90;;;3.25;;
76284;SDS011;71676;50.998;7.098;2023-12-20T09:13:08;11.65;;;3.28;;
76284;SDS011;71676;50.998;7.098;2023-12-20T09:15:35;10.90;;;2.95;;
76284;SDS011;71676;50.998;7.098;2023-12-20T09:18:02;14.25;;;2.97;;
76284;SDS011;71676;50.998;7.098;2023-12-20T09:20:28;8.35;;;2.30;;
76284;SDS011;71676;50.998;7.098;2023-12-20T09:22:55;14.30;;;2.75;;
76284;SDS011;71676;50.998;7.098;2023-12-20T09:25:22;9.48;;;2.65;;
76284;SDS011;71676;50.998;7.098;2023-12-20T09:27:48;10.52;;;3.20;;
76284;SDS011;71676;50.998;7.098;2023-12-20T09:30:16;9.40;;;2.53;;
76284;SDS011;71676;50.998;7.098;2023-12-20T09:32:43;10.55;;;2.60;;
76284;SDS011;71676;50.998;7.098;2023-12-20T09:35:10;12.40;;;2.65;;
76284;SDS011;71676;50.998;7.098;2023-12-20T09:37:36;4.07;;;1.42;;
76284;SDS011;71676;50.998;7.098;2023-12-20T09:40:03;11.07;;;2.80;;
76284;SDS011;71676;50.998;7.098;2023-12-20T09:42:33;12.15;;;2.40;;
76284;SDS011;71676;50.998;7.098;2023-12-20T09:45:08;12.13;;;4.00;;
76284;SDS011;71676;50.998;7.098;2023-12-20T09:47:37;13.30;;;2.85;;
76284;SDS011;71676;50.998;7.098;2023-12-20T09:50:04;12.68;;;3.15;;
76284;SDS011;71676;50.998;7.098;2023-12-20T09:52:31;10.00;;;2.58;;
76284;SDS011;71676;50.998;7.098;2023-12-20T09:54:59;9.85;;;2.83;;
76284;SDS011;71676;50.998;7.098;2023-12-20T09:57:30;11.68;;;2.80;;
76284;SDS011;71676;50.998;7.098;2023-12-20T09:59:57;11.02;;;2.60;;
76284;SDS011;71676;50.998;7.098;2023-12-20T10:02:24;16.38;;;3.33;;
76284;SDS011;71676;50.998;7.098;2023-12-20T10:04:53;13.27;;;2.70;;
76284;SDS011;71676;50.998;7.098;2023-12-20T10:07:20;8.48;;;2.38;;
76284;SDS011;71676;50.998;7.098;2023-12-20T10:09:48;6.00;;;1.92;;
76284;SDS011;71676;50.998;7.098;2023-12-20T10:12:15;6.18;;;2.15;;
76284;SDS011;71676;50.998;7.098;2023-12-20T10:14:41;8.98;;;2.50;;
76284;SDS011;71676;50.998;7.098;2023-12-20T10:17:08;12.15;;;2.30;;
76284;SDS011;71676;50.998;7.098;2023-12-20T10:19:35;14.98;;;3.00;;
76284;SDS011;71676;50.998;7.098;2023-12-20T10:22:05;10.45;;;2.22;;
76284;SDS011;71676;50.998;7.098;2023-12-20T10:24:31;13.82;;;3.38;;
76284;SDS011;71676;50.998;7.098;2023-12-20T10:27:01;11.07;;;3.33;;
76284;SDS011;71676;50.998;7.098;2023-12-20T10:29:31;9.70;;;3.08;;
76284;SDS011;71676;50.998;7.098;2023-12-20T10:31:58;8.57;;;2.20;;
76284;SDS011;71676;50.998;7.098;2023-12-20T10:34:25;6.65;;;1.38;;
76284;SDS011;71676;50.998;7.098;2023-12-20T10:36:51;10.98;;;2.67;;
76284;SDS011;71676;50.998;7.098;2023-12-20T10:39:20;19.17;;;4.68;;
76284;SDS011;71676;50.998;7.098;2023-12-20T10:41:47;9.13;;;2.55;;
76284;SDS011;71676;50.998;7.098;2023-12-20T10:44:14;11.65;;;2.88;;
76284;SDS011;71676;50.998;7.098;2023-12-20T10:46:41;11.80;;;2.00;;
76284;SDS011;71676;50.998;7.098;2023-12-20T10:49:15;13.60;;;2.90;;
76284;SDS011;71676;50.998;7.098;2023-12-20T10:51:44;11.50;;;2.80;;
76284;SDS011;71676;50.998;7.098;2023-12-20T10:54:13;7.40;;;1.83;;
76284;SDS011;71676;50.998;7.098;2023-12-20T10:56:42;8.25;;;2.20;;
76284;SDS011;71676;50.998;7.098;2023-12-20T10:59:10;13.27;;;2.60;;
76284;SDS011;71676;50.998;7.098;2023-12-20T11:01:38;12.05;;;2.30;;
76284;SDS011;71676;50.998;7.098;2023-12-20T11:04:08;9.55;;;3.03;;
76284;SDS011;71676;50.998;7.098;2023-12-20T11:06:43;10.00;;;2.33;;
76284;SDS011;71676;50.998;7.098;2023-12-20T11:09:17;8.55;;;2.13;;
76284;SDS011;71676;50.998;7.098;2023-12-20T11:12:01;6.13;;;1.58;;
76284;SDS011;71676;50.998;7.098;2023-12-20T11:14:34;9.13;;;1.92;;
76284;SDS011;71676;50.998;7.098;2023-12-20T11:17:08;9.32;;;2.47;;
76284;SDS011;71676;50.998;7.098;2023-12-20T11:19:36;7.80;;;2.25;;
76284;SDS011;71676;50.998;7.098;2023-12-20T11:22:04;10.45;;;2.10;;
76284;SDS011;71676;50.998;7.098;2023-12-20T11:24:32;9.32;;;2.42;;
76284;SDS011;71676;50.998;7.098;2023-12-20T11:27:00;8.60;;;1.75;;
76284;SDS011;71676;50.998;7.098;2023-12-20T11:29:31;8.18;;;2.75;;
76284;SDS011;71676;50.998;7.098;2023-12-20T11:32:01;8.93;;;2.53;;
76284;SDS011;71676;50.998;7.098;2023-12-20T11:34:30;11.68;;;2.40;;
76284;SDS011;71676;50.998;7.098;2023-12-20T11:36:58;8.27;;;2.35;;
76284;SDS011;71676;50.998;7.098;2023-12-20T11:39:26;7.43;;;2.28;;
76284;SDS011;71676;50.998;7.098;2023-12-20T11:41:54;12.73;;;2.60;;
76284;SDS011;71676;50.998;7.098;2023-12-20T11:44:24;12.05;;;2.53;;
76284;SDS011;71676;50.998;7.098;2023-12-20T11:46:51;9.32;;;2.30;;
76284;SDS011;71676;50.998;7.098;2023-12-20T11:49:22;15.65;;;3.30;;
76284;SDS011;71676;50.998;7.098;2023-12-20T11:51:49;9.18;;;2.45;;
76284;SDS011;71676;50.998;7.098;2023-12-20T11:54:16;8.80;;;1.77;;
76284;SDS011;71676;50.998;7.098;2023-12-20T11:56:43;14.18;;;2.50;;
76284;SDS011;71676;50.998;7.098;2023-12-20T11:59:09;9.00;;;2.60;;
76284;SDS011;71676;50.998;7.098;2023-12-20T12:01:37;15.77;;;3.42;;
76284;SDS011;71676;50.998;7.098;2023-12-20T12:04:04;8.13;;;2.15;;
76284;SDS011;71676;50.998;7.098;2023-12-20T12:06:31;10.73;;;2.72;;
76284;SDS011;71676;50.998;7.098;2023-12-20T12:08:58;11.55;;;2.35;;
76284;SDS011;71676;50.998;7.098;2023-12-20T12:11:25;10.77;;;2.15;;
76284;SDS011;71676;50.998;7.098;2023-12-20T12:13:52;10.10;;;2.70;;
76284;SDS011;71676;50.998;7.098;2023-12-20T12:16:19;4.40;;;1.63;;
76284;SDS011;71676;50.998;7.098;2023-12-20T12:18:54;10.38;;;2.42;;
76284;SDS011;71676;50.998;7.098;2023-12-20T12:21:21;11.30;;;3.40;;
76284;SDS011;71676;50.998;7.098;2023-12-20T12:23:48;12.93;;;2.97;;
76284;SDS011;71676;50.998;7.098;2023-12-20T12:26:14;12.00;;;3.10;;
76284;SDS011;71676;50.998;7.098;2023-12-20T12:28:41;5.72;;;2.17;;
76284;SDS011;71676;50.998;7.098;2023-12-20T12:31:08;10.02;;;3.00;;
76284;SDS011;71676;50.998;7.098;2023-12-20T12:33:40;11.70;;;2.45;;
76284;SDS011;71676;50.998;7.098;2023-12-20T12:36:10;6.18;;;2.22;;
76284;SDS011;71676;50.998;7.098;2023-12-20T12:38:37;7.63;;;2.20;;
76284;SDS011;71676;50.998;7.098;2023-12-20T12:41:04;6.32;;;2.05;;
76284;SDS011;71676;50.998;7.098;2023-12-20T12:43:32;7.13;;;2.28;;
76284;SDS011;71676;50.998;7.098;2023-12-20T12:45:58;11.95;;;3.08;;
76284;SDS011;71676;50.998;7.098;2023-12-20T12:48:25;11.68;;;3.20;;
76284;SDS011;71676;50.998;7.098;2023-12-20T12:50:53;13.73;;;3.25;;
76284;SDS011;71676;50.998;7.098;2023-12-20T12:53:23;11.60;;;3.13;;
76284;SDS011;71676;50.998;7.098;2023-12-20T12:55:50;11.38;;;2.88;;
76284;SDS011;71676;50.998;7.098;2023-12-20T12:58:17;7.68;;;2.63;;
76284;SDS011;71676;50.998;7.098;2023-12-20T13:00:43;11.38;;;2.70;;
76284;SDS011;71676;50.998;7.098;2023-12-20T13:03:10;11.05;;;2.83;;
76284;SDS011;71676;50.998;7.098;2023-12-20T13:05:36;7.35;;;2.28;;
76284;SDS011;71676;50.998;7.098;2023-12-20T13:08:03;12.23;;;2.65;;
76284;SDS011;71676;50.998;7.098;2023-12-20T13:10:33;9.40;;;2.42;;
76284;SDS011;71676;50.998;7.098;2023-12-20T13:12:59;10.50;;;2.80;;
76284;SDS011;71676;50.998;7.098;2023-12-20T13:15:26;6.28;;;2.35;;
76284;SDS011;71676;50.998;7.098;2023-12-20T13:17:52;13.40;;;2.80;;
76284;SDS011;71676;50.998;7.098;2023-12-20T13:20:19;16.65;;;3.88;;
76284;SDS011;71676;50.998;7.098;2023-12-20T13:22:47;10.80;;;3.35;;
76284;SDS011;71676;50.998;7.098;2023-12-20T13:25:13;9.90;;;2.90;;
76284;SDS011;71676;50.998;7.098;2023-12-20T13:27:42;10.20;;;3.00;;
76284;SDS011;71676;50.998;7.098;2023-12-20T13:30:09;7.82;;;2.22;;
76284;SDS011;71676;50.998;7.098;2023-12-20T13:32:36;9.75;;;2.83;;
76284;SDS011;71676;50.998;7.098;2023-12-20T13:35:03;10.75;;;3.63;;
76284;SDS011;71676;50.998;7.098;2023-12-20T13:37:30;9.93;;;3.03;;
76284;SDS011;71676;50.998;7.098;2023-12-20T13:39:57;8.40;;;2.30;;
76284;SDS011;71676;50.998;7.098;2023-12-20T13:42:26;10.20;;;3.35;;
76284;SDS011;71676;50.998;7.098;2023-12-20T13:44:54;8.40;;;2.38;;
76284;SDS011;71676;50.998;7.098;2023-12-20T13:47:21;13.13;;;2.85;;
76284;SDS011;71676;50.998;7.098;2023-12-20T13:49:48;13.93;;;3.85;;
76284;SDS011;71676;50.998;7.098;2023-12-20T13:52:14;10.88;;;3.75;;
76284;SDS011;71676;50.998;7.098;2023-12-20T13:54:41;4.32;;;1.83;;
76284;SDS011;71676;50.998;7.098;2023-12-20T13:57:08;10.85;;;2.72;;
76284;SDS011;71676;50.998;7.098;2023-12-20T13:59:34;9.68;;;2.08;;
76284;SDS011;71676;50.998;7.098;2023-12-20T14:02:03;10.38;;;2.10;;
76284;SDS011;71676;50.998;7.098;2023-12-20T14:04:30;8.70;;;2.17;;
76284;SDS011;71676;50.998;7.098;2023-12-20T14:06:57;11.13;;;2.83;;
76284;SDS011;71676;50.998;7.098;2023-12-20T14:09:23;9.68;;;2.60;;
76284;SDS011;71676;50.998;7.098;2023-12-20T14:11:50;7.05;;;2.03;;
76284;SDS011;71676;50.998;7.098;2023-12-20T14:14:17;9.32;;;3.13;;
76284;SDS011;71676;50.998;7.098;2023-12-20T14:16:44;6.50;;;2.10;;
76284;SDS011;71676;50.998;7.098;2023-12-20T14:19:12;9.23;;;2.83;;
76284;SDS011;71676;50.998;7.098;2023-12-20T14:21:38;8.27;;;2.42;;
76284;SDS011;71676;50.998;7.098;2023-12-20T14:24:05;9.77;;;2.70;;
76284;SDS011;71676;50.998;7.098;2023-12-20T14:26:32;9.27;;;2.13;;
76284;SDS011;71676;50.998;7.098;2023-12-20T14:28:59;6.40;;;2.00;;
76284;SDS011;71676;50.998;7.098;2023-12-20T14:31:25;5.90;;;2.10;;
76284;SDS011;71676;50.998;7.098;2023-12-20T14:33:52;5.03;;;1.98;;
76284;SDS011;71676;50.998;7.098;2023-12-20T14:36:21;10.27;;;2.35;;
76284;SDS011;71676;50.998;7.098;2023-12-20T14:38:48;7.32;;;2.17;;